sensor_id;sensor_type;location;lat;lon;timestamp;pressure;altitude;pressure_sealevel;temperature;humidity
75656;BME280;64252;51.094;13.714;2023-02-28T00:00:34;101836.81;;;-0.43;80.76
75656;BME280;64252;51.094;13.714;2023-02-28T00:03:01;101840.69;;;-0.44;82.27
75656;BME280;64252;51.094;13.714;2023-02-28T00:05:27;101842.38;;;-0.48;80.10
75656;BME280;64252;51.094;13.714;2023-02-28T00:07:54;101835.69;;;-0.47;80.03
75656;BME280;64252;51.094;13.714;2023-02-28T00:10:23;101838.75;;;-0.43;80.47
75656;BME280;64252;51.094;13.714;2023-02-28T00:12:54;101832.66;;;-0.46;80.92
75656;BME280;64252;51.094;13.714;2023-02-28T00:15:23;101842.91;;;-0.51;81.22
75656;BME280;64252;51.094;13.714;2023-02-28T00:17:49;101844.06;;;-0.52;81.38
75656;BME280;64252;51.094;13.714;2023-02-28T00:20:15;101839.34;;;-0.62;81.14
75656;BME280;64252;51.094;13.714;2023-02-28T00:22:43;101830.19;;;-0.72;82.14
75656;BME280;64252;51.094;13.714;2023-02-28T00:25:11;101835.19;;;-0.84;83.74
75656;BME280;64252;51.094;13.714;2023-02-28T00:27:38;101830.50;;;-0.99;82.28
75656;BME280;64252;51.094;13.714;2023-02-28T00:30:06;101833.25;;;-1.14;83.60
75656;BME280;64252;51.094;13.714;2023-02-28T00:32:32;101835.72;;;-1.13;83.16
75656;BME280;64252;51.094;13.714;2023-02-28T00:34:57;101831.59;;;-1.05;82.59
75656;BME280;64252;51.094;13.714;2023-02-28T00:37:23;101826.31;;;-1.12;82.88
75656;BME280;64252;51.094;13.714;2023-02-28T00:39:49;101827.69;;;-1.14;83.62
75656;BME280;64252;51.094;13.714;2023-02-28T00:42:15;101825.78;;;-1.09;83.14
75656;BME280;64252;51.094;13.714;2023-02-28T00:44:40;101832.41;;;-1.15;83.45
75656;BME280;64252;51.094;13.714;2023-02-28T00:47:06;101824.94;;;-1.09;83.47
75656;BME280;64252;51.094;13.714;2023-02-28T00:49:31;101837.38;;;-1.22;84.13
75656;BME280;64252;51.094;13.714;2023-02-28T00:51:57;101837.38;;;-1.27;84.18
75656;BME280;64252;51.094;13.714;2023-02-28T00:54:25;101837.38;;;-1.32;84.84
75656;BME280;64252;51.094;13.714;2023-02-28T00:56:51;101833.47;;;-1.41;85.80
75656;BME280;64252;51.094;13.714;2023-02-28T00:59:18;101834.03;;;-1.44;85.05
75656;BME280;64252;51.094;13.714;2023-02-28T01:01:45;101832.91;;;-1.48;86.12
75656;BME280;64252;51.094;13.714;2023-02-28T01:04:11;101827.34;;;-1.53;86.14
75656;BME280;64252;51.094;13.714;2023-02-28T01:06:37;101836.16;;;-1.71;87.29
75656;BME280;64252;51.094;13.714;2023-02-28T01:09:04;101851.03;;;-1.88;87.93
75656;BME280;64252;51.094;13.714;2023-02-28T01:11:31;101844.94;;;-1.95;89.73
75656;BME280;64252;51.094;13.714;2023-02-28T01:13:57;101842.72;;;-1.98;90.94
75656;BME280;64252;51.094;13.714;2023-02-28T01:16:23;101846.56;;;-2.04;89.01
75656;BME280;64252;51.094;13.714;2023-02-28T01:18:48;101832.50;;;-1.87;89.04
75656;BME280;64252;51.094;13.714;2023-02-28T01:21:15;101838.81;;;-1.97;89.74
75656;BME280;64252;51.094;13.714;2023-02-28T01:23:41;101841.06;;;-1.94;90.03
75656;BME280;64252;51.094;13.714;2023-02-28T01:26:10;101834.41;;;-1.98;89.42
75656;BME280;64252;51.094;13.714;2023-02-28T01:28:39;101827.78;;;-1.92;88.74
75656;BME280;64252;51.094;13.714;2023-02-28T01:31:05;101827.25;;;-1.84;89.00
75656;BME280;64252;51.094;13.714;2023-02-28T01:33:31;101832.31;;;-1.70;87.93
75656;BME280;64252;51.094;13.714;2023-02-28T01:36:09;101828.13;;;-1.73;89.34
75656;BME280;64252;51.094;13.714;2023-02-28T01:38:38;101832.78;;;-1.84;89.26
75656;BME280;64252;51.094;13.714;2023-02-28T01:41:05;101819.75;;;-1.88;90.75
75656;BME280;64252;51.094;13.714;2023-02-28T01:43:54;101835.59;;;-1.73;88.40
75656;BME280;64252;51.094;13.714;2023-02-28T01:46:20;101827.81;;;-1.82;88.53
75656;BME280;64252;51.094;13.714;2023-02-28T01:51:22;101831.97;;;-1.89;90.49
75656;BME280;64252;51.094;13.714;2023-02-28T01:53:57;101830.84;;;-1.93;89.78
75656;BME280;64252;51.094;13.714;2023-02-28T01:56:29;101825.28;;;-1.88;90.36
75656;BME280;64252;51.094;13.714;2023-02-28T01:58:57;101825.00;;;-1.92;90.00
75656;BME280;64252;51.094;13.714;2023-02-28T02:01:26;101824.19;;;-1.92;89.63
75656;BME280;64252;51.094;13.714;2023-02-28T02:03:58;101814.50;;;-1.90;89.77
75656;BME280;64252;51.094;13.714;2023-02-28T02:06:29;101824.44;;;-1.99;89.70
75656;BME280;64252;51.094;13.714;2023-02-28T02:08:57;101811.09;;;-2.12;90.35
75656;BME280;64252;51.094;13.714;2023-02-28T02:11:24;101817.25;;;-2.00;89.95
75656;BME280;64252;51.094;13.714;2023-02-28T02:19:46;101813.34;;;-2.04;90.57
75656;BME280;64252;51.094;13.714;2023-02-28T02:30:52;101812.22;;;-2.08;91.08
75656;BME280;64252;51.094;13.714;2023-02-28T02:36:18;101808.34;;;-2.12;91.09
75656;BME280;64252;51.094;13.714;2023-02-28T02:38:53;101811.91;;;-2.11;91.57
75656;BME280;64252;51.094;13.714;2023-02-28T02:41:38;101807.25;;;-2.06;91.34
75656;BME280;64252;51.094;13.714;2023-02-28T02:44:18;101813.00;;;-2.17;91.48
75656;BME280;64252;51.094;13.714;2023-02-28T02:46:47;101812.19;;;-2.18;91.37
75656;BME280;64252;51.094;13.714;2023-02-28T02:49:22;101813.75;;;-2.32;92.19
75656;BME280;64252;51.094;13.714;2023-02-28T02:51:51;101819.81;;;-2.40;92.80
75656;BME280;64252;51.094;13.714;2023-02-28T02:54:21;101818.94;;;-2.46;93.62
75656;BME280;64252;51.094;13.714;2023-02-28T02:56:50;101815.81;;;-2.59;93.50
75656;BME280;64252;51.094;13.714;2023-02-28T02:59:20;101814.28;;;-2.40;93.34
75656;BME280;64252;51.094;13.714;2023-02-28T03:01:54;101818.88;;;-2.56;93.37
75656;BME280;64252;51.094;13.714;2023-02-28T03:04:22;101818.56;;;-2.64;94.12
75656;BME280;64252;51.094;13.714;2023-02-28T03:06:51;101825.97;;;-2.70;94.30
75656;BME280;64252;51.094;13.714;2023-02-28T03:09:22;101825.69;;;-2.74;94.36
75656;BME280;64252;51.094;13.714;2023-02-28T03:11:48;101821.00;;;-2.73;93.95
75656;BME280;64252;51.094;13.714;2023-02-28T03:14:42;101830.03;;;-2.83;94.65
75656;BME280;64252;51.094;13.714;2023-02-28T03:25:33;101822.91;;;-3.05;94.39
75656;BME280;64252;51.094;13.714;2023-02-28T03:31:17;101819.94;;;-2.99;93.82
75656;BME280;64252;51.094;13.714;2023-02-28T03:34:01;101820.00;;;-2.94;93.00
75656;BME280;64252;51.094;13.714;2023-02-28T03:36:37;101819.94;;;-2.99;92.98
75656;BME280;64252;51.094;13.714;2023-02-28T03:39:14;101822.78;;;-2.89;93.27
75656;BME280;64252;51.094;13.714;2023-02-28T03:41:57;101825.22;;;-2.97;94.10
75656;BME280;64252;51.094;13.714;2023-02-28T03:45:03;101824.28;;;-3.08;93.13
75656;BME280;64252;51.094;13.714;2023-02-28T03:47:31;101820.53;;;-2.97;92.70
75656;BME280;64252;51.094;13.714;2023-02-28T03:50:19;101822.66;;;-3.04;93.22
75656;BME280;64252;51.094;13.714;2023-02-28T03:53:08;101814.97;;;-3.29;94.95
75656;BME280;64252;51.094;13.714;2023-02-28T03:56:46;101832.44;;;-3.23;94.42
75656;BME280;64252;51.094;13.714;2023-02-28T04:01:37;101832.13;;;-3.27;94.37
75656;BME280;64252;51.094;13.714;2023-02-28T04:04:04;101833.16;;;-3.33;94.64
75656;BME280;64252;51.094;13.714;2023-02-28T04:06:31;101842.19;;;-3.42;94.98
75656;BME280;64252;51.094;13.714;2023-02-28T04:08:57;101840.56;;;-3.38;94.51
75656;BME280;64252;51.094;13.714;2023-02-28T04:11:32;101842.34;;;-3.27;93.95
75656;BME280;64252;51.094;13.714;2023-02-28T04:14:02;101842.66;;;-3.24;93.71
75656;BME280;64252;51.094;13.714;2023-02-28T04:16:29;101839.59;;;-3.27;94.04
75656;BME280;64252;51.094;13.714;2023-02-28T04:18:55;101846.94;;;-3.38;93.91
75656;BME280;64252;51.094;13.714;2023-02-28T04:21:53;101850.03;;;-3.34;93.38
75656;BME280;64252;51.094;13.714;2023-02-28T04:24:22;101848.41;;;-3.30;93.87
75656;BME280;64252;51.094;13.714;2023-02-28T04:26:50;101851.22;;;-3.25;93.42
75656;BME280;64252;51.094;13.714;2023-02-28T04:29:26;101857.78;;;-3.31;93.00
75656;BME280;64252;51.094;13.714;2023-02-28T04:31:52;101850.47;;;-3.42;93.60
75656;BME280;64252;51.094;13.714;2023-02-28T04:34:19;101858.69;;;-3.47;94.63
75656;BME280;64252;51.094;13.714;2023-02-28T04:36:45;101857.38;;;-3.45;94.82
75656;BME280;64252;51.094;13.714;2023-02-28T04:39:11;101857.66;;;-3.41;94.55
75656;BME280;64252;51.094;13.714;2023-02-28T04:41:37;101859.91;;;-3.38;94.19
75656;BME280;64252;51.094;13.714;2023-02-28T04:44:06;101867.63;;;-3.40;94.53
75656;BME280;64252;51.094;13.714;2023-02-28T04:46:31;101855.75;;;-3.41;94.28
75656;BME280;64252;51.094;13.714;2023-02-28T04:48:57;101856.22;;;-3.49;94.36
75656;BME280;64252;51.094;13.714;2023-02-28T04:51:24;101866.91;;;-3.53;94.44
75656;BME280;64252;51.094;13.714;2023-02-28T04:53:49;101855.50;;;-3.61;94.46
75656;BME280;64252;51.094;13.714;2023-02-28T04:56:16;101856.28;;;-3.66;94.42
75656;BME280;64252;51.094;13.714;2023-02-28T04:58:43;101855.84;;;-3.79;95.01
75656;BME280;64252;51.094;13.714;2023-02-28T05:01:34;101864.78;;;-3.72;94.54
75656;BME280;64252;51.094;13.714;2023-02-28T05:04:02;101852.84;;;-3.78;95.52
75656;BME280;64252;51.094;13.714;2023-02-28T05:06:30;101854.53;;;-3.77;95.41
75656;BME280;64252;51.094;13.714;2023-02-28T05:08:57;101861.56;;;-3.86;95.83
75656;BME280;64252;51.094;13.714;2023-02-28T05:11:29;101858.19;;;-3.93;95.38
75656;BME280;64252;51.094;13.714;2023-02-28T05:13:59;101863.44;;;-3.91;95.42
75656;BME280;64252;51.094;13.714;2023-02-28T05:16:25;101862.31;;;-3.95;96.56
75656;BME280;64252;51.094;13.714;2023-02-28T05:18:51;101862.53;;;-3.97;96.45
75656;BME280;64252;51.094;13.714;2023-02-28T05:21:23;101870.28;;;-3.94;96.07
75656;BME280;64252;51.094;13.714;2023-02-28T05:29:15;101880.69;;;-4.01;96.56
75656;BME280;64252;51.094;13.714;2023-02-28T05:42:05;101876.06;;;-4.17;97.49
75656;BME280;64252;51.094;13.714;2023-02-28T05:44:33;101877.41;;;-4.20;96.78
75656;BME280;64252;51.094;13.714;2023-02-28T05:51:13;101874.38;;;-4.18;97.32
75656;BME280;64252;51.094;13.714;2023-02-28T05:53:48;101874.91;;;-4.21;97.17
75656;BME280;64252;51.094;13.714;2023-02-28T05:56:25;101880.28;;;-4.31;97.57
75656;BME280;64252;51.094;13.714;2023-02-28T06:02:03;101886.06;;;-4.11;96.55
75656;BME280;64252;51.094;13.714;2023-02-28T06:07:51;101897.75;;;-4.04;96.16
75656;BME280;64252;51.094;13.714;2023-02-28T06:10:23;101897.94;;;-4.11;96.72
75656;BME280;64252;51.094;13.714;2023-02-28T06:12:48;101904.63;;;-4.07;96.20
75656;BME280;64252;51.094;13.714;2023-02-28T06:15:15;101890.91;;;-4.02;96.08
75656;BME280;64252;51.094;13.714;2023-02-28T06:17:43;101905.47;;;-4.06;96.13
75656;BME280;64252;51.094;13.714;2023-02-28T06:20:10;101903.72;;;-4.12;96.02
75656;BME280;64252;51.094;13.714;2023-02-28T06:22:38;101901.97;;;-4.18;96.92
75656;BME280;64252;51.094;13.714;2023-02-28T06:25:05;101907.00;;;-4.15;96.57
75656;BME280;64252;51.094;13.714;2023-02-28T06:27:32;101910.75;;;-4.21;97.05
75656;BME280;64252;51.094;13.714;2023-02-28T06:29:58;101906.22;;;-4.11;96.42
75656;BME280;64252;51.094;13.714;2023-02-28T06:32:24;101909.66;;;-4.20;96.54
75656;BME280;64252;51.094;13.714;2023-02-28T06:34:49;101921.94;;;-4.11;96.52
75656;BME280;64252;51.094;13.714;2023-02-28T06:37:16;101919.81;;;-4.04;96.46
75656;BME280;64252;51.094;13.714;2023-02-28T06:39:42;101928.69;;;-4.02;96.01
75656;BME280;64252;51.094;13.714;2023-02-28T06:42:07;101932.59;;;-3.98;95.99
75656;BME280;64252;51.094;13.714;2023-02-28T06:44:33;101929.31;;;-3.95;95.80
75656;BME280;64252;51.094;13.714;2023-02-28T06:47:05;101935.81;;;-4.06;96.52
75656;BME280;64252;51.094;13.714;2023-02-28T06:49:33;101934.88;;;-4.12;96.48
75656;BME280;64252;51.094;13.714;2023-02-28T06:51:58;101938.28;;;-4.05;96.52
75656;BME280;64252;51.094;13.714;2023-02-28T06:54:24;101951.81;;;-3.86;96.47
75656;BME280;64252;51.094;13.714;2023-02-28T06:56:50;101950.13;;;-3.66;95.36
75656;BME280;64252;51.094;13.714;2023-02-28T06:59:16;101954.25;;;-3.46;95.21
75656;BME280;64252;51.094;13.714;2023-02-28T07:01:42;101950.66;;;-3.25;94.06
75656;BME280;64252;51.094;13.714;2023-02-28T07:04:07;101955.88;;;-3.02;91.94
75656;BME280;64252;51.094;13.714;2023-02-28T07:06:33;101964.94;;;-2.80;90.98
75656;BME280;64252;51.094;13.714;2023-02-28T07:08:59;101955.13;;;-2.66;89.72
75656;BME280;64252;51.094;13.714;2023-02-28T07:11:26;101955.81;;;-2.48;88.97
75656;BME280;64252;51.094;13.714;2023-02-28T07:13:53;101953.72;;;-2.36;88.16
75656;BME280;64252;51.094;13.714;2023-02-28T07:16:19;101965.44;;;-2.19;86.10
75656;BME280;64252;51.094;13.714;2023-02-28T07:18:44;101949.56;;;-1.92;85.74
75656;BME280;64252;51.094;13.714;2023-02-28T07:21:11;101944.16;;;-1.71;85.20
75656;BME280;64252;51.094;13.714;2023-02-28T07:23:38;101952.56;;;-1.51;83.79
75656;BME280;64252;51.094;13.714;2023-02-28T07:26:06;101951.44;;;-1.50;84.71
75656;BME280;64252;51.094;13.714;2023-02-28T07:28:31;101950.81;;;-1.67;84.31
75656;BME280;64252;51.094;13.714;2023-02-28T07:31:05;101959.34;;;-1.79;84.61
75656;BME280;64252;51.094;13.714;2023-02-28T07:33:32;101959.34;;;-1.79;83.09
75656;BME280;64252;51.094;13.714;2023-02-28T07:36:15;101953.03;;;-1.64;83.65
75656;BME280;64252;51.094;13.714;2023-02-28T07:38:44;101958.69;;;-1.39;83.13
75656;BME280;64252;51.094;13.714;2023-02-28T07:41:12;101957.69;;;-1.18;82.76
75656;BME280;64252;51.094;13.714;2023-02-28T07:43:38;101954.41;;;-1.00;80.91
75656;BME280;64252;51.094;13.714;2023-02-28T07:46:07;101953.03;;;-0.92;80.72
75656;BME280;64252;51.094;13.714;2023-02-28T07:48:33;101963.28;;;-0.93;80.39
75656;BME280;64252;51.094;13.714;2023-02-28T07:50:59;101958.88;;;-0.78;79.58
75656;BME280;64252;51.094;13.714;2023-02-28T07:53:25;101959.72;;;-0.63;81.67
75656;BME280;64252;51.094;13.714;2023-02-28T07:55:58;101954.47;;;-0.54;80.04
75656;BME280;64252;51.094;13.714;2023-02-28T07:58:24;101966.66;;;-0.40;79.05
75656;BME280;64252;51.094;13.714;2023-02-28T08:00:50;101960.81;;;-0.23;77.78
75656;BME280;64252;51.094;13.714;2023-02-28T08:03:17;101963.84;;;-0.05;76.91
75656;BME280;64252;51.094;13.714;2023-02-28T08:05:45;101954.97;;;0.04;76.36
75656;BME280;64252;51.094;13.714;2023-02-28T08:08:11;101957.16;;;0.22;77.35
75656;BME280;64252;51.094;13.714;2023-02-28T08:10:36;101966.31;;;0.22;76.49
75656;BME280;64252;51.094;13.714;2023-02-28T08:13:05;101962.13;;;0.25;76.14
75656;BME280;64252;51.094;13.714;2023-02-28T08:15:31;101961.84;;;0.41;77.46
75656;BME280;64252;51.094;13.714;2023-02-28T08:17:57;101959.75;;;0.72;75.53
75656;BME280;64252;51.094;13.714;2023-02-28T08:20:24;101962.81;;;0.71;74.09
75656;BME280;64252;51.094;13.714;2023-02-28T08:22:50;101958.69;;;0.63;75.06
75656;BME280;64252;51.094;13.714;2023-02-28T08:25:16;101950.75;;;0.91;75.79
75656;BME280;64252;51.094;13.714;2023-02-28T08:27:41;101954.44;;;0.81;73.51
75656;BME280;64252;51.094;13.714;2023-02-28T08:30:14;101958.41;;;1.14;73.32
75656;BME280;64252;51.094;13.714;2023-02-28T08:32:41;101963.47;;;1.07;74.42
75656;BME280;64252;51.094;13.714;2023-02-28T08:35:07;101960.66;;;1.12;73.13
75656;BME280;64252;51.094;13.714;2023-02-28T08:37:34;101957.94;;;1.02;72.73
75656;BME280;64252;51.094;13.714;2023-02-28T08:40:01;101960.50;;;1.32;73.35
75656;BME280;64252;51.094;13.714;2023-02-28T08:42:26;101954.16;;;1.31;73.34
75656;BME280;64252;51.094;13.714;2023-02-28T08:44:52;101960.13;;;1.49;72.18
75656;BME280;64252;51.094;13.714;2023-02-28T08:47:18;101962.13;;;1.77;70.49
75656;BME280;64252;51.094;13.714;2023-02-28T08:49:43;101964.63;;;1.79;69.39
75656;BME280;64252;51.094;13.714;2023-02-28T08:52:09;101971.00;;;1.79;68.19
75656;BME280;64252;51.094;13.714;2023-02-28T08:54:35;101964.19;;;1.95;68.45
75656;BME280;64252;51.094;13.714;2023-02-28T08:57:02;101967.75;;;2.01;67.83
75656;BME280;64252;51.094;13.714;2023-02-28T08:59:29;101966.59;;;2.07;68.26
75656;BME280;64252;51.094;13.714;2023-02-28T09:01:55;101966.00;;;2.10;66.36
75656;BME280;64252;51.094;13.714;2023-02-28T09:04:20;101957.25;;;2.45;65.61
75656;BME280;64252;51.094;13.714;2023-02-28T09:06:47;101963.25;;;2.34;65.50
75656;BME280;64252;51.094;13.714;2023-02-28T09:09:15;101962.13;;;2.58;66.20
75656;BME280;64252;51.094;13.714;2023-02-28T09:11:40;101958.38;;;2.44;62.70
75656;BME280;64252;51.094;13.714;2023-02-28T09:14:06;101953.69;;;2.63;61.46
75656;BME280;64252;51.094;13.714;2023-02-28T09:16:32;101962.00;;;2.21;63.36
75656;BME280;64252;51.094;13.714;2023-02-28T09:18:58;101960.22;;;2.30;60.46
75656;BME280;64252;51.094;13.714;2023-02-28T09:21:24;101952.75;;;2.26;60.70
75656;BME280;64252;51.094;13.714;2023-02-28T09:23:50;101961.28;;;2.34;59.51
75656;BME280;64252;51.094;13.714;2023-02-28T09:26:19;101952.03;;;2.39;59.01
75656;BME280;64252;51.094;13.714;2023-02-28T09:28:45;101955.31;;;2.17;59.85
75656;BME280;64252;51.094;13.714;2023-02-28T09:31:13;101951.91;;;2.25;59.75
75656;BME280;64252;51.094;13.714;2023-02-28T09:33:39;101952.38;;;2.32;59.23
75656;BME280;64252;51.094;13.714;2023-02-28T09:36:05;101957.72;;;2.52;61.37
75656;BME280;64252;51.094;13.714;2023-02-28T09:38:31;101951.66;;;2.45;61.36
75656;BME280;64252;51.094;13.714;2023-02-28T09:41:00;101940.41;;;2.55;61.97
75656;BME280;64252;51.094;13.714;2023-02-28T09:43:30;101956.72;;;2.43;58.94
75656;BME280;64252;51.094;13.714;2023-02-28T09:48:45;101942.59;;;2.58;57.76
75656;BME280;64252;51.094;13.714;2023-02-28T09:53:49;101946.97;;;3.07;58.63
75656;BME280;64252;51.094;13.714;2023-02-28T09:56:39;101945.16;;;3.16;55.68
75656;BME280;64252;51.094;13.714;2023-02-28T10:01:55;101942.00;;;3.04;54.57
75656;BME280;64252;51.094;13.714;2023-02-28T10:04:47;101954.59;;;2.59;56.11
75656;BME280;64252;51.094;13.714;2023-02-28T10:10:07;101949.63;;;2.75;55.66
75656;BME280;64252;51.094;13.714;2023-02-28T10:12:44;101940.16;;;2.94;54.97
75656;BME280;64252;51.094;13.714;2023-02-28T10:15:15;101943.81;;;3.32;54.42
75656;BME280;64252;51.094;13.714;2023-02-28T10:17:45;101949.59;;;3.36;53.97
75656;BME280;64252;51.094;13.714;2023-02-28T10:20:19;101947.66;;;2.99;55.03
75656;BME280;64252;51.094;13.714;2023-02-28T10:22:53;101952.19;;;2.71;55.28
75656;BME280;64252;51.094;13.714;2023-02-28T10:25:25;101947.97;;;2.50;56.68
75656;BME280;64252;51.094;13.714;2023-02-28T10:27:59;101945.19;;;2.74;55.66
75656;BME280;64252;51.094;13.714;2023-02-28T10:30:26;101950.22;;;3.14;55.21
75656;BME280;64252;51.094;13.714;2023-02-28T10:32:52;101954.94;;;3.70;54.32
75656;BME280;64252;51.094;13.714;2023-02-28T10:35:21;101939.50;;;3.72;53.79
75656;BME280;64252;51.094;13.714;2023-02-28T10:37:49;101946.72;;;3.92;54.08
75656;BME280;64252;51.094;13.714;2023-02-28T10:43:05;101946.13;;;3.95;53.15
75656;BME280;64252;51.094;13.714;2023-02-28T10:45:35;101938.97;;;3.89;53.53
75656;BME280;64252;51.094;13.714;2023-02-28T10:58:56;101943.94;;;2.85;55.36
75656;BME280;64252;51.094;13.714;2023-02-28T11:01:23;101944.19;;;2.64;56.29
75656;BME280;64252;51.094;13.714;2023-02-28T11:03:50;101945.41;;;2.58;56.40
75656;BME280;64252;51.094;13.714;2023-02-28T11:08:46;101931.72;;;2.81;56.65
75656;BME280;64252;51.094;13.714;2023-02-28T11:11:13;101932.78;;;2.85;55.15
75656;BME280;64252;51.094;13.714;2023-02-28T11:13:39;101924.47;;;2.80;57.19
75656;BME280;64252;51.094;13.714;2023-02-28T11:16:07;101929.31;;;3.30;57.05
75656;BME280;64252;51.094;13.714;2023-02-28T11:21:08;101908.25;;;4.71;54.76
75656;BME280;64252;51.094;13.714;2023-02-28T11:23:40;101912.09;;;5.24;49.65
75656;BME280;64252;51.094;13.714;2023-02-28T11:26:06;101908.59;;;5.86;50.17
75656;BME280;64252;51.094;13.714;2023-02-28T11:28:41;101900.72;;;6.18;48.01
75656;BME280;64252;51.094;13.714;2023-02-28T11:36:22;101899.31;;;4.96;51.67
75656;BME280;64252;51.094;13.714;2023-02-28T11:38:50;101898.13;;;4.48;52.29
75656;BME280;64252;51.094;13.714;2023-02-28T11:41:28;101902.38;;;4.31;52.16
75656;BME280;64252;51.094;13.714;2023-02-28T11:44:08;101895.47;;;3.83;53.48
75656;BME280;64252;51.094;13.714;2023-02-28T11:55:07;101879.28;;;4.39;51.97
75656;BME280;64252;51.094;13.714;2023-02-28T12:03:43;101887.84;;;2.68;55.95
75656;BME280;64252;51.094;13.714;2023-02-28T12:28:09;101876.38;;;3.58;54.33
75656;BME280;64252;51.094;13.714;2023-02-28T12:30:37;101884.47;;;3.40;54.87
75656;BME280;64252;51.094;13.714;2023-02-28T12:33:09;101871.19;;;3.51;55.29
75656;BME280;64252;51.094;13.714;2023-02-28T12:35:43;101870.09;;;3.66;54.81
75656;BME280;64252;51.094;13.714;2023-02-28T12:41:00;101867.56;;;4.10;54.64
75656;BME280;64252;51.094;13.714;2023-02-28T12:43:33;101877.91;;;4.10;53.52
75656;BME280;64252;51.094;13.714;2023-02-28T12:46:09;101875.09;;;3.96;53.34
75656;BME280;64252;51.094;13.714;2023-02-28T12:48:46;101876.09;;;3.73;53.74
75656;BME280;64252;51.094;13.714;2023-02-28T12:51:15;101874.97;;;3.74;54.37
75656;BME280;64252;51.094;13.714;2023-02-28T12:56:35;101876.63;;;3.75;53.88
75656;BME280;64252;51.094;13.714;2023-02-28T12:59:08;101865.47;;;3.42;53.52
75656;BME280;64252;51.094;13.714;2023-02-28T13:10:04;101866.28;;;2.92;54.67
75656;BME280;64252;51.094;13.714;2023-02-28T13:12:32;101855.50;;;3.04;54.25
75656;BME280;64252;51.094;13.714;2023-02-28T13:15:08;101861.63;;;3.06;54.47
75656;BME280;64252;51.094;13.714;2023-02-28T13:17:39;101860.28;;;3.17;54.54
75656;BME280;64252;51.094;13.714;2023-02-28T13:20:18;101853.22;;;3.25;54.05
75656;BME280;64252;51.094;13.714;2023-02-28T13:22:50;101853.72;;;3.27;54.58
75656;BME280;64252;51.094;13.714;2023-02-28T13:27:59;101848.88;;;3.32;54.08
75656;BME280;64252;51.094;13.714;2023-02-28T13:33:36;101851.34;;;3.20;54.93
75656;BME280;64252;51.094;13.714;2023-02-28T13:36:29;101850.25;;;3.16;53.57
75656;BME280;64252;51.094;13.714;2023-02-28T13:39:03;101846.75;;;3.11;54.73
75656;BME280;64252;51.094;13.714;2023-02-28T13:44:22;101838.66;;;3.09;56.01
75656;BME280;64252;51.094;13.714;2023-02-28T13:57:29;101839.38;;;3.33;54.90
75656;BME280;64252;51.094;13.714;2023-02-28T14:00:20;101816.00;;;3.29;56.34
75656;BME280;64252;51.094;13.714;2023-02-28T14:03:14;101830.19;;;3.79;53.14
75656;BME280;64252;51.094;13.714;2023-02-28T14:05:44;101822.94;;;3.91;54.36
75656;BME280;64252;51.094;13.714;2023-02-28T14:08:20;101826.56;;;3.92;53.68
75656;BME280;64252;51.094;13.714;2023-02-28T14:11:03;101825.03;;;3.86;54.11
75656;BME280;64252;51.094;13.714;2023-02-28T14:13:43;101817.53;;;3.68;55.05
75656;BME280;64252;51.094;13.714;2023-02-28T14:16:13;101813.41;;;3.79;53.96
75656;BME280;64252;51.094;13.714;2023-02-28T14:18:57;101813.59;;;3.55;53.77
75656;BME280;64252;51.094;13.714;2023-02-28T14:21:27;101817.91;;;3.47;54.18
75656;BME280;64252;51.094;13.714;2023-02-28T14:32:26;101801.09;;;3.20;54.54
75656;BME280;64252;51.094;13.714;2023-02-28T14:35:20;101798.38;;;3.15;54.82
75656;BME280;64252;51.094;13.714;2023-02-28T14:37:43;101798.81;;;3.22;55.50
75656;BME280;64252;51.094;13.714;2023-02-28T14:40:19;101790.00;;;3.47;55.08
75656;BME280;64252;51.094;13.714;2023-02-28T14:43:18;101797.59;;;3.28;56.23
75656;BME280;64252;51.094;13.714;2023-02-28T14:45:49;101796.31;;;3.21;56.21
75656;BME280;64252;51.094;13.714;2023-02-28T14:48:17;101799.97;;;3.02;56.34
75656;BME280;64252;51.094;13.714;2023-02-28T14:50:49;101794.50;;;2.79;56.69
75656;BME280;64252;51.094;13.714;2023-02-28T14:53:18;101797.06;;;2.75;58.17
75656;BME280;64252;51.094;13.714;2023-02-28T14:55:47;101805.38;;;2.61;58.08
75656;BME280;64252;51.094;13.714;2023-02-28T14:58:32;101809.34;;;2.55;57.80
75656;BME280;64252;51.094;13.714;2023-02-28T15:01:00;101801.13;;;2.45;58.07
75656;BME280;64252;51.094;13.714;2023-02-28T15:06:00;101802.78;;;2.46;58.08
75656;BME280;64252;51.094;13.714;2023-02-28T15:08:26;101803.69;;;2.60;57.39
75656;BME280;64252;51.094;13.714;2023-02-28T15:11:01;101810.47;;;2.54;58.19
75656;BME280;64252;51.094;13.714;2023-02-28T15:13:43;101806.56;;;2.55;57.72
75656;BME280;64252;51.094;13.714;2023-02-28T15:16:13;101806.94;;;2.49;58.01
75656;BME280;64252;51.094;13.714;2023-02-28T15:18:52;101816.22;;;2.44;57.97
75656;BME280;64252;51.094;13.714;2023-02-28T15:21:28;101813.84;;;2.33;58.86
75656;BME280;64252;51.094;13.714;2023-02-28T15:26:33;101811.56;;;2.16;59.60
75656;BME280;64252;51.094;13.714;2023-02-28T15:29:20;101807.25;;;2.05;60.30
75656;BME280;64252;51.094;13.714;2023-02-28T15:34:23;101804.69;;;1.85;60.00
75656;BME280;64252;51.094;13.714;2023-02-28T15:36:52;101806.78;;;1.74;61.75
75656;BME280;64252;51.094;13.714;2023-02-28T15:39:24;101799.78;;;1.76;60.54
75656;BME280;64252;51.094;13.714;2023-02-28T15:41:50;101805.34;;;1.76;61.06
75656;BME280;64252;51.094;13.714;2023-02-28T15:47:14;101809.84;;;1.72;60.85
75656;BME280;64252;51.094;13.714;2023-02-28T15:52:19;101813.63;;;1.58;62.06
75656;BME280;64252;51.094;13.714;2023-02-28T15:54:46;101824.25;;;1.51;62.27
75656;BME280;64252;51.094;13.714;2023-02-28T15:57:25;101811.00;;;1.43;62.10
75656;BME280;64252;51.094;13.714;2023-02-28T15:59:57;101823.28;;;1.37;62.69
75656;BME280;64252;51.094;13.714;2023-02-28T16:02:36;101818.06;;;1.30;62.91
75656;BME280;64252;51.094;13.714;2023-02-28T16:07:36;101804.25;;;1.20;63.61
75656;BME280;64252;51.094;13.714;2023-02-28T16:10:02;101804.31;;;1.15;63.25